Time;durP1;ratioP1;P1;durP2;ratioP2;P2;SDS_P1;SDS_P2;PMS_P1;PMS_P2;Temp;Humidity;BMP_temperature;BMP_pressure;BME280_temperature;BME280_humidity;BME280_pressure;Samples;Min_cycle;Max_cycle;Signal;HPM_P1;HPM_P2
2023/05/20 00:01:52;;;;;;;9.40;6.70;;;;;;;16.51;71.00;100196.73;107594;1253;76226;-38
2023/05/20 00:04:21;;;;;;;7.20;6.30;;;;;;;16.47;70.92;100197.64;107625;1257;70181;-38
2023/05/20 00:06:48;;;;;;;10.80;6.10;;;;;;;16.42;70.81;100195.96;107579;1254;74651;-38
2023/05/20 00:09:16;;;;;;;9.80;6.10;;;;;;;16.43;71.05;100195.36;107622;1254;61700;-38
2023/05/20 00:11:44;;;;;;;9.60;6.50;;;;;;;16.43;70.95;100191.27;107547;1257;61134;-38
2023/05/20 00:14:13;;;;;;;8.80;5.90;;;;;;;16.39;71.03;100192.02;107606;1255;76104;-38
2023/05/20 00:16:40;;;;;;;8.10;6.40;;;;;;;16.36;71.14;100192.55;107529;1256;70287;-38
2023/05/20 00:19:07;;;;;;;7.70;6.20;;;;;;;16.33;71.16;100190.10;107598;1253;74200;-38
2023/05/20 00:21:35;;;;;;;8.00;6.10;;;;;;;16.32;71.10;100195.48;107555;1257;63854;-38
2023/05/20 00:24:02;;;;;;;7.30;5.60;;;;;;;16.34;71.14;100195.42;107550;1252;61572;-39
2023/05/20 00:26:30;;;;;;;8.80;5.90;;;;;;;16.36;71.04;100195.84;107603;1256;75476;-37
2023/05/20 00:28:57;;;;;;;6.60;5.80;;;;;;;16.36;71.11;100196.06;107635;1253;69097;-37
2023/05/20 00:31:25;;;;;;;7.70;6.20;;;;;;;16.34;71.19;100200.66;107586;1256;74771;-37
2023/05/20 00:33:52;;;;;;;7.20;6.00;;;;;;;16.36;71.06;100199.81;107630;1257;61525;-37
2023/05/20 00:36:20;;;;;;;7.20;5.60;;;;;;;16.35;71.07;100195.44;107585;1255;61643;-37
2023/05/20 00:38:47;;;;;;;7.00;5.60;;;;;;;16.39;70.94;100194.23;107648;1254;75308;-37
2023/05/20 00:41:14;;;;;;;8.90;6.00;;;;;;;16.44;70.92;100193.80;107612;1257;69739;-37
2023/05/20 00:43:41;;;;;;;7.10;5.80;;;;;;;16.45;70.75;100193.33;107624;1254;74243;-38
2023/05/20 00:46:09;;;;;;;6.80;5.50;;;;;;;16.46;70.69;100195.45;107580;1255;62191;-38
2023/05/20 00:48:40;;;;;;;10.10;6.60;;;;;;;16.45;70.68;100187.39;107612;1257;60598;-37
2023/05/20 00:51:08;;;;;;;9.20;5.70;;;;;;;16.43;70.61;100186.81;107549;1253;74054;-37
2023/05/20 00:53:36;;;;;;;8.20;5.80;;;;;;;16.43;70.56;100188.61;107580;1254;70052;-37
2023/05/20 00:56:04;;;;;;;8.90;5.70;;;;;;;16.42;70.53;100193.15;107342;1257;74164;-38
2023/05/20 00:58:31;;;;;;;9.10;6.50;;;;;;;16.42;70.60;100194.33;107496;1257;60473;-37
2023/05/20 01:00:58;;;;;;;8.60;6.30;;;;;;;16.40;70.61;100194.94;107693;1255;62715;-38
2023/05/20 01:03:26;;;;;;;9.40;6.60;;;;;;;16.36;70.62;100191.92;107459;1260;73096;-37
2023/05/20 01:05:54;;;;;;;8.60;5.90;;;;;;;16.31;70.61;100192.52;107469;1255;68859;-37
2023/05/20 01:08:22;;;;;;;7.40;5.40;;;;;;;16.30;70.55;100192.59;107565;1257;73302;-37
2023/05/20 01:11:21;;;;;;;9.80;5.90;;;;;;;16.28;70.59;100191.85;107594;1254;60535;-37
2023/05/20 01:13:53;;;;;;;7.50;6.30;;;;;;;16.24;70.73;100187.67;107691;1254;62655;-37
2023/05/20 01:16:22;;;;;;;7.10;5.80;;;;;;;16.19;70.82;100185.12;107619;1254;75524;-37
2023/05/20 01:18:50;;;;;;;9.10;6.10;;;;;;;16.10;71.07;100189.02;107489;1254;70022;-37
2023/05/20 01:21:17;;;;;;;6.80;5.80;;;;;;;16.02;71.34;100187.08;107569;1257;73906;-37
2023/05/20 01:23:44;;;;;;;7.00;5.70;;;;;;;16.00;71.42;100187.61;107594;1255;63972;-37
2023/05/20 01:26:15;;;;;;;6.90;5.60;;;;;;;15.99;71.57;100189.22;107589;1257;62017;-37
2023/05/20 01:28:44;;;;;;;10.70;6.20;;;;;;;15.97;71.71;100188.51;107605;1253;75262;-37
2023/05/20 01:31:22;;;;;;;7.80;6.50;;;;;;;15.95;71.78;100187.86;107510;1254;69695;-37
2023/05/20 01:33:51;;;;;;;8.40;6.20;;;;;;;15.92;71.86;100190.56;107611;1254;73695;-37
2023/05/20 01:36:18;;;;;;;6.80;5.70;;;;;;;15.88;71.98;100191.45;107636;1254;63355;-37
2023/05/20 01:38:45;;;;;;;7.00;5.60;;;;;;;15.88;72.01;100190.21;107484;1257;61779;-37
2023/05/20 01:41:13;;;;;;;8.20;6.30;;;;;;;15.88;72.13;100189.42;107389;1254;75329;-37
2023/05/20 01:43:40;;;;;;;7.10;6.40;;;;;;;15.85;72.32;100186.96;107447;1253;69221;-37
2023/05/20 01:46:07;;;;;;;9.10;6.30;;;;;;;15.83;72.44;100194.27;107425;1257;75017;-37
2023/05/20 01:48:35;;;;;;;7.80;5.20;;;;;;;15.79;72.38;100196.75;107594;1253;64102;-38
2023/05/20 01:51:02;;;;;;;7.60;5.80;;;;;;;15.80;72.21;100200.89;107708;1253;62692;-37
2023/05/20 01:53:29;;;;;;;6.90;6.10;;;;;;;15.81;72.13;100202.86;107501;1254;76084;-37
2023/05/20 01:55:57;;;;;;;7.60;6.00;;;;;;;15.81;72.07;100206.23;107530;1253;69815;-37
2023/05/20 01:58:25;;;;;;;9.10;6.20;;;;;;;15.79;72.06;100211.34;107638;1256;73239;-38
2023/05/20 02:00:52;;;;;;;7.00;6.40;;;;;;;15.74;72.10;100209.96;107525;1255;62031;-37
2023/05/20 02:03:20;;;;;;;11.20;6.00;;;;;;;15.67;72.24;100211.38;107669;1253;62618;-37
2023/05/20 02:05:47;;;;;;;9.30;6.00;;;;;;;15.65;72.32;100210.48;107478;1254;74896;-37
2023/05/20 02:08:14;;;;;;;8.60;6.30;;;;;;;15.58;72.39;100203.77;107614;1254;70398;-37
2023/05/20 02:10:43;;;;;;;8.80;6.50;;;;;;;15.59;72.42;100210.10;107609;1254;71975;-37
2023/05/20 02:13:11;;;;;;;13.20;7.20;;;;;;;15.55;72.56;100209.58;107479;1255;61999;-37
2023/05/20 02:15:42;;;;;;;8.90;6.20;;;;;;;15.49;72.68;100209.17;107641;1255;61136;-37
2023/05/20 02:18:11;;;;;;;7.20;5.60;;;;;;;15.49;72.67;100209.55;107581;1254;73957;-37
2023/05/20 02:20:39;;;;;;;8.30;6.30;;;;;;;15.52;72.55;100210.39;107548;1257;70417;-37
2023/05/20 02:23:07;;;;;;;10.80;6.30;;;;;;;15.50;72.64;100210.75;107614;1254;74792;-37
2023/05/20 02:25:35;;;;;;;12.40;6.60;;;;;;;15.47;72.64;100211.86;107580;1257;61480;-37
2023/05/20 02:28:04;;;;;;;12.50;6.70;;;;;;;15.41;72.81;100212.97;107635;1254;62379;-37
2023/05/20 02:30:33;;;;;;;9.00;6.10;;;;;;;15.34;72.95;100214.90;107439;1253;75847;-38
2023/05/20 02:33:01;;;;;;;8.30;6.00;;;;;;;15.31;73.10;100215.09;107586;1254;67740;-38
2023/05/20 02:35:28;;;;;;;8.30;6.40;;;;;;;15.31;73.17;100212.52;107576;1254;75024;-37
2023/05/20 02:37:55;;;;;;;7.80;6.50;;;;;;;15.31;73.11;100211.98;107666;1254;61233;-37
2023/05/20 02:40:23;;;;;;;8.60;5.90;;;;;;;15.30;73.02;100211.11;107616;1257;62689;-38
2023/05/20 02:42:50;;;;;;;7.90;5.90;;;;;;;15.27;72.98;100211.68;107468;1254;76302;-38
2023/05/20 02:45:17;;;;;;;9.80;6.10;;;;;;;15.27;72.96;100214.96;107627;1254;70320;-37
2023/05/20 02:47:45;;;;;;;7.40;5.50;;;;;;;15.31;72.94;100215.50;107419;1255;74122;-37
2023/05/20 02:50:12;;;;;;;6.90;6.20;;;;;;;15.32;72.90;100220.80;107527;1253;62579;-37
2023/05/20 02:52:41;;;;;;;9.60;6.40;;;;;;;15.31;72.70;100222.52;107588;1257;62054;-37
2023/05/20 02:55:09;;;;;;;11.90;6.40;;;;;;;15.29;72.86;100228.43;107522;1252;76309;-37
2023/05/20 02:57:37;;;;;;;7.80;5.40;;;;;;;15.27;72.80;100229.16;107488;1254;70521;-37
2023/05/20 03:00:09;;;;;;;7.00;5.30;;;;;;;15.31;72.69;100231.58;107489;1254;73792;-37
2023/05/20 03:02:37;;;;;;;6.40;5.80;;;;;;;15.34;72.62;100231.14;107662;1253;62461;-37
2023/05/20 03:05:06;;;;;;;6.70;5.70;;;;;;;15.36;72.47;100231.88;107628;1254;61416;-37
2023/05/20 03:07:35;;;;;;;9.80;6.40;;;;;;;15.38;72.23;100230.17;107563;1253;76297;-37
2023/05/20 03:10:06;;;;;;;11.60;5.70;;;;;;;15.37;72.14;100231.48;107349;1254;70041;-37
2023/05/20 03:12:33;;;;;;;6.20;5.30;;;;;;;15.39;72.20;100235.75;107381;1254;74506;-37
2023/05/20 03:15:01;;;;;;;6.90;5.10;;;;;;;15.46;71.93;100235.45;107657;1254;61138;-38
2023/05/20 03:17:28;;;;;;;7.60;5.40;;;;;;;15.50;71.82;100237.77;107547;1254;62434;-38
2023/05/20 03:19:56;;;;;;;9.10;6.10;;;;;;;15.49;71.69;100228.80;107557;1254;73997;-37
2023/05/20 03:22:23;;;;;;;7.90;5.80;;;;;;;15.56;71.37;100229.60;107665;1257;67373;-38
2023/05/20 03:24:51;;;;;;;10.60;5.70;;;;;;;15.60;71.34;100230.02;107375;1253;74727;-38
2023/05/20 03:27:20;;;;;;;8.70;4.90;;;;;;;15.68;71.13;100231.05;107648;1253;62949;-38
2023/05/20 03:29:47;;;;;;;7.60;5.20;;;;;;;15.74;70.84;100230.29;107667;1254;61158;-38
2023/05/20 03:32:15;;;;;;;8.30;5.50;;;;;;;15.78;70.36;100228.67;107616;1252;73242;-37
2023/05/20 03:34:43;;;;;;;8.40;5.50;;;;;;;15.82;70.22;100225.76;107726;1254;68063;-37
2023/05/20 03:37:11;;;;;;;7.20;5.20;;;;;;;15.86;70.00;100227.14;107647;1254;74691;-38
2023/05/20 03:39:38;;;;;;;7.50;4.90;;;;;;;15.87;69.99;100228.48;107513;1253;63109;-38
2023/05/20 03:42:06;;;;;;;6.60;5.20;;;;;;;15.95;69.94;100226.14;107434;1254;212468;-38
2023/05/20 03:46:41;;;;;;;8.30;5.70;;;;;;;16.09;69.32;100228.32;104187;1293;600496;-38
2023/05/20 03:49:09;;;;;;;8.00;5.50;;;;;;;16.13;68.79;100229.45;106673;1267;61633;-38
2023/05/20 03:51:37;;;;;;;9.30;5.40;;;;;;;16.14;68.72;100225.02;106658;1267;60604;-38
2023/05/20 03:54:08;;;;;;;6.20;4.90;;;;;;;16.12;68.45;100224.61;106564;1266;72192;-38
2023/05/20 03:56:36;;;;;;;9.80;5.00;;;;;;;16.15;68.38;100225.10;106686;1267;68439;-38
2023/05/20 03:59:03;;;;;;;7.80;5.40;;;;;;;16.23;68.55;100224.02;106728;1267;73877;-38
2023/05/20 04:01:32;;;;;;;8.10;5.40;;;;;;;16.30;68.34;100222.13;106670;1264;195499;-38
2023/05/20 04:04:00;;;;;;;7.60;5.20;;;;;;;16.36;67.62;100221.55;106766;1263;61250;-38
2023/05/20 04:06:27;;;;;;;8.60;5.40;;;;;;;16.40;67.47;100223.45;106778;1264;73449;-38
2023/05/20 04:08:55;;;;;;;6.70;5.30;;;;;;;16.44;67.32;100224.90;106897;1264;69021;-38
2023/05/20 04:11:23;;;;;;;6.30;4.90;;;;;;;16.48;67.55;100226.66;106744;1264;75306;-38
2023/05/20 04:13:50;;;;;;;6.40;5.00;;;;;;;16.56;67.01;100224.26;106685;1264;62738;-38
2023/05/20 04:16:18;;;;;;;8.40;5.60;;;;;;;16.65;66.64;100228.25;106680;1264;62317;-39
2023/05/20 04:18:47;;;;;;;9.10;5.00;;;;;;;16.71;65.94;100232.91;106750;1264;75318;-38
2023/05/20 04:21:14;;;;;;;8.10;5.00;;;;;;;16.72;65.84;100237.92;106770;1264;66561;-38
2023/05/20 04:23:42;;;;;;;8.60;5.30;;;;;;;16.73;66.13;100244.75;106763;1264;73163;-38
2023/05/20 04:26:09;;;;;;;6.90;5.20;;;;;;;16.77;65.97;100245.95;106777;1270;62813;-38
2023/05/20 04:28:37;;;;;;;8.50;4.90;;;;;;;16.79;65.51;100246.90;106708;1264;61372;-38
2023/05/20 04:31:05;;;;;;;7.30;4.90;;;;;;;16.83;65.51;100248.42;106755;1264;75330;-38
2023/05/20 04:33:38;;;;;;;6.90;4.70;;;;;;;16.85;65.54;100248.45;106824;1264;68777;-38
2023/05/20 04:36:07;;;;;;;7.00;4.70;;;;;;;16.87;65.53;100246.20;106710;1270;74761;-38
2023/05/20 04:38:34;;;;;;;6.30;4.70;;;;;;;16.91;65.71;100243.48;106769;1264;59814;-39
2023/05/20 04:41:02;;;;;;;6.80;4.70;;;;;;;16.95;65.45;100240.77;106888;1266;61316;-39
2023/05/20 04:43:30;;;;;;;7.30;4.40;;;;;;;16.98;65.14;100243.84;106869;1260;75746;-38
2023/05/20 04:46:04;;;;;;;7.70;5.00;;;;;;;17.06;65.02;100244.75;106957;1261;70078;-38
2023/05/20 04:48:32;;;;;;;5.80;4.30;;;;;;;17.13;64.90;100247.85;106890;1260;75022;-38
2023/05/20 04:51:00;;;;;;;6.40;4.90;;;;;;;17.19;64.81;100251.02;107003;1265;61943;-39
2023/05/20 04:53:29;;;;;;;8.40;4.80;;;;;;;17.26;64.40;100252.16;106913;1266;62756;-38
2023/05/20 04:55:56;;;;;;;6.30;4.80;;;;;;;17.29;64.63;100254.85;106965;1261;75364;-38
2023/05/20 04:58:24;;;;;;;8.80;5.20;;;;;;;17.33;64.47;100259.41;106860;1261;70086;-38
2023/05/20 05:00:51;;;;;;;7.20;4.80;;;;;;;17.35;64.88;100259.34;106853;1267;71945;-38
2023/05/20 05:03:19;;;;;;;10.20;5.10;;;;;;;17.40;64.31;100257.65;106873;1261;61442;-38
2023/05/20 05:05:47;;;;;;;7.50;5.20;;;;;;;17.46;64.50;100260.10;106859;1260;60783;-38
2023/05/20 05:08:15;;;;;;;7.70;5.40;;;;;;;17.51;64.47;100259.66;106854;1267;73237;-38
2023/05/20 05:10:47;;;;;;;8.80;5.10;;;;;;;17.55;64.59;100257.88;107019;1260;65919;-38
2023/05/20 05:13:15;;;;;;;7.50;5.30;;;;;;;17.60;64.51;100253.30;106918;1264;72682;-38
2023/05/20 05:15:42;;;;;;;7.50;4.70;;;;;;;17.63;64.11;100250.66;106836;1260;63414;-38
2023/05/20 05:18:10;;;;;;;9.50;5.10;;;;;;;17.63;63.73;100253.40;106838;1266;60855;-38
2023/05/20 05:20:38;;;;;;;6.40;4.90;;;;;;;17.69;63.61;100255.08;106913;1261;75339;-38
2023/05/20 05:23:05;;;;;;;7.00;4.80;;;;;;;17.75;63.94;100256.51;106924;1261;70359;-38
2023/05/20 05:25:33;;;;;;;8.00;5.50;;;;;;;17.82;64.23;100255.61;106943;1267;74123;-38
2023/05/20 05:28:01;;;;;;;7.00;4.90;;;;;;;17.89;63.89;100253.66;106903;1263;60492;-38
2023/05/20 05:30:29;;;;;;;6.40;5.20;;;;;;;17.95;63.67;100258.23;106901;1261;62329;-38
2023/05/20 05:32:56;;;;;;;7.60;5.10;;;;;;;17.94;63.34;100251.17;106905;1261;74392;-38
2023/05/20 05:35:25;;;;;;;6.80;4.80;;;;;;;18.01;63.11;100260.52;106852;1260;67968;-38
2023/05/20 05:37:53;;;;;;;5.80;4.60;;;;;;;18.06;63.34;100261.16;106833;1260;74109;-38
2023/05/20 05:40:20;;;;;;;8.00;5.00;;;;;;;18.15;63.34;100257.67;106789;1260;59913;-38
2023/05/20 05:42:47;;;;;;;7.90;5.50;;;;;;;18.22;62.57;100262.23;106953;1261;61584;-38
2023/05/20 05:45:14;;;;;;;7.80;5.70;;;;;;;18.23;62.40;100266.78;106967;1266;75110;-38
2023/05/20 05:47:42;;;;;;;5.60;5.10;;;;;;;18.26;62.85;100267.34;106922;1266;69073;-38
2023/05/20 05:50:10;;;;;;;7.70;5.30;;;;;;;18.31;62.78;100264.69;106923;1261;72339;-38
2023/05/20 05:52:37;;;;;;;6.80;5.00;;;;;;;18.36;62.65;100262.11;106878;1267;61259;-38
2023/05/20 05:55:08;;;;;;;8.50;5.20;;;;;;;18.38;62.05;100264.77;106883;1266;60487;-38
2023/05/20 05:57:35;;;;;;;8.80;5.30;;;;;;;18.38;62.26;100262.98;106893;1269;75695;-38
2023/05/20 06:00:03;;;;;;;6.70;4.30;;;;;;;18.43;62.27;100263.28;107028;1261;68057;-37
2023/05/20 06:02:43;;;;;;;10.70;4.50;;;;;;;18.49;62.28;100266.20;106874;1264;71787;-37
2023/05/20 06:05:12;;;;;;;5.90;4.50;;;;;;;18.52;62.04;100262.75;106960;1264;62780;-38
2023/05/20 06:07:39;;;;;;;6.40;4.60;;;;;;;18.56;61.98;100259.02;106925;1266;61497;-38
2023/05/20 06:10:07;;;;;;;6.20;4.80;;;;;;;18.63;61.61;100260.90;106937;1260;74582;-38
2023/05/20 06:12:35;;;;;;;7.50;4.60;;;;;;;18.65;61.22;100254.86;106942;1260;70436;-38
2023/05/20 06:15:03;;;;;;;6.70;5.00;;;;;;;18.67;61.51;100249.06;107371;1257;73967;-38
2023/05/20 06:17:30;;;;;;;6.50;4.80;;;;;;;18.71;61.20;100252.76;107427;1254;62247;-38
2023/05/20 06:19:58;;;;;;;6.20;4.90;;;;;;;18.73;60.94;100251.33;107476;1252;60361;-38
2023/05/20 06:22:26;;;;;;;6.80;4.80;;;;;;;18.72;60.10;100252.91;107342;1254;74440;-38
2023/05/20 06:24:55;;;;;;;8.30;4.50;;;;;;;18.79;59.91;100256.11;107439;1254;70159;-38
2023/05/20 06:27:23;;;;;;;8.00;5.00;;;;;;;18.84;59.14;100255.02;107461;1253;75345;-38
2023/05/20 06:29:51;;;;;;;7.30;4.80;;;;;;;18.84;58.40;100254.79;107532;1254;62805;-36
2023/05/20 06:32:18;;;;;;;6.90;4.60;;;;;;;18.83;58.47;100258.94;107370;1253;61892;-38
2023/05/20 06:34:45;;;;;;;7.30;4.90;;;;;;;18.84;58.37;100257.94;107497;1252;74076;-37
2023/05/20 06:37:13;;;;;;;9.20;4.70;;;;;;;18.85;58.57;100259.34;107499;1254;68390;-38
2023/05/20 06:39:40;;;;;;;9.20;4.80;;;;;;;18.90;59.16;100258.09;107399;1254;75035;-38
2023/05/20 06:42:07;;;;;;;6.40;5.10;;;;;;;18.93;58.93;100258.55;107504;1254;60757;-38
2023/05/20 06:44:35;;;;;;;6.80;4.90;;;;;;;18.95;58.27;100256.04;107466;1254;60756;-38
2023/05/20 06:47:32;;;;;;;9.00;5.40;;;;;;;18.95;58.09;100258.16;107088;1254;75273;-38
2023/05/20 06:50:00;;;;;;;8.70;5.20;;;;;;;18.95;58.07;100253.05;107505;1253;69021;-38
2023/05/20 06:52:28;;;;;;;9.20;4.90;;;;;;;18.98;58.10;100259.80;107431;1254;73370;-37
2023/05/20 06:54:56;;;;;;;7.90;4.50;;;;;;;18.99;57.38;100251.48;107318;1257;62493;-38
2023/05/20 06:57:23;;;;;;;10.00;4.90;;;;;;;19.02;56.93;100254.38;107504;1254;60290;-38
2023/05/20 06:59:50;;;;;;;6.50;4.50;;;;;;;19.04;55.92;100252.58;107513;1254;75445;-38
2023/05/20 07:02:20;;;;;;;5.60;5.00;;;;;;;19.07;54.85;100255.23;107493;1260;67898;-38
2023/05/20 07:04:48;;;;;;;11.90;4.60;;;;;;;19.09;54.96;100253.35;107537;1254;72213;-37
2023/05/20 07:07:16;;;;;;;6.60;4.40;;;;;;;19.13;53.84;100250.29;107554;1258;59792;-38
2023/05/20 07:09:44;;;;;;;5.20;4.20;;;;;;;19.16;53.66;100248.94;107573;1254;59372;-38
2023/05/20 07:12:11;;;;;;;8.10;4.20;;;;;;;19.20;53.88;100250.19;107463;1254;75246;-37
2023/05/20 07:14:38;;;;;;;9.60;4.30;;;;;;;19.28;54.04;100251.34;107502;1254;69070;-38
2023/05/20 07:17:06;;;;;;;6.60;4.20;;;;;;;19.39;53.92;100248.66;107362;1256;75112;-37
2023/05/20 07:19:33;;;;;;;8.90;4.60;;;;;;;19.52;51.80;100254.06;107592;1254;62027;-39
2023/05/20 07:22:01;;;;;;;7.00;4.70;;;;;;;19.63;51.23;100255.21;107554;1254;59700;-37
2023/05/20 07:24:46;;;;;;;7.00;4.40;;;;;;;19.74;52.03;100254.30;107409;1254;73895;-37
2023/05/20 07:27:13;;;;;;;6.90;4.40;;;;;;;19.80;51.02;100249.72;107577;1258;70324;-37
2023/05/20 07:29:41;;;;;;;6.90;4.40;;;;;;;19.83;50.74;100250.41;107455;1254;72877;-37
2023/05/20 07:32:09;;;;;;;5.90;4.60;;;;;;;19.87;51.16;100256.91;107519;1254;60298;-37
2023/05/20 07:34:37;;;;;;;7.60;4.40;;;;;;;19.93;50.85;100259.33;107547;1254;59681;-37
2023/05/20 07:37:05;;;;;;;7.40;4.40;;;;;;;20.01;50.42;100267.48;107539;1256;72066;-37
2023/05/20 07:39:32;;;;;;;5.50;4.60;;;;;;;20.08;50.78;100272.30;107401;1254;70335;-37
2023/05/20 07:41:59;;;;;;;9.10;5.00;;;;;;;20.15;50.51;100271.33;107507;1254;74571;-37
2023/05/20 07:44:27;;;;;;;13.00;5.00;;;;;;;20.20;50.02;100270.11;107640;1254;60381;-37
2023/05/20 07:46:54;;;;;;;7.00;4.80;;;;;;;20.26;49.41;100269.85;107495;1259;61409;-37
2023/05/20 07:49:22;;;;;;;10.30;4.20;;;;;;;20.31;49.25;100273.14;107521;1253;73908;-37
2023/05/20 07:51:49;;;;;;;8.00;4.40;;;;;;;20.38;48.98;100273.73;107508;1254;69077;-37
2023/05/20 07:54:16;;;;;;;7.30;4.60;;;;;;;20.46;48.36;100267.08;107381;1252;74029;-37
2023/05/20 07:56:46;;;;;;;6.80;4.10;;;;;;;20.54;48.29;100266.86;107374;1254;61521;-37
2023/05/20 07:59:16;;;;;;;;;;;;;;;20.62;47.99;100264.91;107456;1254;60650;-37
2023/05/20 08:01:46;;;;;;;;;;;;;;;20.66;47.68;100258.20;107530;1253;74181;-37
2023/05/20 08:04:15;;;;;;;7.20;3.90;;;;;;;20.67;47.27;100258.27;107418;1254;67517;-38
2023/05/20 08:06:43;;;;;;;5.70;4.30;;;;;;;20.74;46.95;100263.88;107527;1254;73461;-37
2023/05/20 08:09:14;;;;;;;6.30;4.00;;;;;;;20.87;46.87;100255.97;107413;1254;60480;-37
2023/05/20 08:11:45;;;;;;;9.40;4.20;;;;;;;21.02;47.33;100250.55;107594;1253;60413;-37
2023/05/20 08:14:13;;;;;;;11.10;4.10;;;;;;;21.17;46.50;100254.21;107546;1258;74843;-37
2023/05/20 08:16:42;;;;;;;6.10;3.70;;;;;;;21.26;45.71;100247.05;107517;1252;68210;-37
2023/05/20 08:19:09;;;;;;;6.20;3.80;;;;;;;21.26;44.95;100246.33;107365;1259;71705;-37
2023/05/20 08:21:38;;;;;;;9.40;4.10;;;;;;;21.23;45.35;100246.59;107424;1256;63184;-37
2023/05/20 08:24:05;;;;;;;9.00;3.50;;;;;;;21.26;44.73;100254.13;107470;1254;61390;-37
2023/05/20 08:26:34;;;;;;;6.30;3.30;;;;;;;21.30;43.44;100250.23;107626;1254;74961;-37
2023/05/20 08:29:01;;;;;;;6.70;3.70;;;;;;;21.36;44.28;100253.47;107339;1254;70224;-37
2023/05/20 08:31:28;;;;;;;4.40;3.10;;;;;;;21.45;43.31;100256.37;107386;1256;73704;-37
2023/05/20 08:33:56;;;;;;;5.60;3.20;;;;;;;21.48;43.28;100252.16;107537;1258;62317;-38
2023/05/20 08:36:24;;;;;;;4.60;3.30;;;;;;;21.53;43.24;100255.73;107397;1252;61677;-37
2023/05/20 08:38:51;;;;;;;6.70;3.40;;;;;;;21.55;42.54;100262.96;107391;1254;74930;-37
2023/05/20 08:41:21;;;;;;;9.30;3.40;;;;;;;21.55;42.49;100259.96;107519;1254;70544;-37
2023/05/20 08:43:49;;;;;;;5.90;3.10;;;;;;;21.56;42.54;100255.86;107483;1254;72315;-37
2023/05/20 08:46:18;;;;;;;8.00;3.30;;;;;;;21.58;42.58;100251.48;107438;1254;60696;-37
2023/05/20 08:48:45;;;;;;;7.10;3.50;;;;;;;21.64;42.85;100248.26;107301;1254;61120;-37
2023/05/20 08:51:12;;;;;;;6.20;3.30;;;;;;;21.76;42.02;100250.41;107505;1258;75319;-37
2023/05/20 08:53:40;;;;;;;6.20;3.10;;;;;;;21.87;41.23;100246.48;107508;1253;70036;-37
2023/05/20 08:56:07;;;;;;;5.10;3.00;;;;;;;21.91;40.67;100244.86;107487;1254;74718;-37
2023/05/20 08:58:34;;;;;;;7.80;3.20;;;;;;;21.96;40.80;100244.56;107282;1254;60431;-37
2023/05/20 09:01:02;;;;;;;5.80;3.50;;;;;;;22.00;39.82;100244.36;107487;1254;60522;-37
2023/05/20 09:03:29;;;;;;;7.40;2.80;;;;;;;22.04;40.51;100244.06;107511;1254;75870;-37
2023/05/20 09:06:07;;;;;;;6.60;3.20;;;;;;;22.14;40.09;100243.15;107550;1254;70313;-37
2023/05/20 09:08:35;;;;;;;9.60;3.20;;;;;;;22.19;40.71;100241.65;107475;1254;73493;-37
2023/05/20 09:11:02;;;;;;;5.90;2.50;;;;;;;22.23;39.13;100234.73;107451;1254;60505;-37
2023/05/20 09:13:31;;;;;;;5.90;3.00;;;;;;;22.26;38.30;100239.33;107498;1253;62356;-37
2023/05/20 09:16:00;;;;;;;6.50;2.70;;;;;;;22.28;38.93;100242.16;107524;1254;75574;-37
2023/05/20 09:18:28;;;;;;;5.90;2.80;;;;;;;22.29;38.71;100238.51;107528;1254;70519;-37
2023/05/20 09:20:56;;;;;;;4.40;2.80;;;;;;;22.32;38.66;100240.67;107495;1254;74837;-38
2023/05/20 09:23:26;;;;;;;6.30;2.90;;;;;;;22.36;38.45;100247.71;107585;1254;61302;-37
2023/05/20 09:25:53;;;;;;;5.90;2.80;;;;;;;22.38;37.36;100248.33;107454;1254;60483;-37
2023/05/20 09:28:23;;;;;;;4.80;3.00;;;;;;;22.32;37.90;100244.14;107482;1254;75226;-37
2023/05/20 09:30:57;;;;;;;8.50;2.70;;;;;;;22.33;38.48;100242.72;107571;1254;70227;-37
2023/05/20 09:33:29;;;;;;;6.90;2.90;;;;;;;22.37;38.14;100242.10;107518;1254;71989;-37
2023/05/20 09:36:04;;;;;;;7.40;2.50;;;;;;;22.36;35.59;100238.02;107565;1254;60418;-36
2023/05/20 09:38:36;;;;;;;8.30;3.20;;;;;;;22.34;35.62;100242.54;107600;1254;61010;-38
2023/05/20 09:41:11;;;;;;;5.90;2.90;;;;;;;22.34;36.09;100241.52;107464;1254;76229;-38
2023/05/20 09:43:39;;;;;;;6.20;2.60;;;;;;;22.40;36.56;100236.77;107503;1253;68754;-38
2023/05/20 09:46:07;;;;;;;6.20;2.90;;;;;;;22.45;36.93;100232.19;107431;1254;75054;-38
2023/05/20 09:48:36;;;;;;;6.10;3.20;;;;;;;22.60;36.38;100241.10;107536;1253;60556;-38
2023/05/20 09:51:04;;;;;;;8.10;3.20;;;;;;;22.67;36.33;100236.48;107530;1254;62133;-38
2023/05/20 09:53:32;;;;;;;8.00;3.20;;;;;;;22.67;35.84;100242.80;107584;1254;74487;-36
2023/05/20 09:56:00;;;;;;;4.80;3.30;;;;;;;22.66;35.92;100245.82;107527;1254;70029;-37
2023/05/20 09:58:27;;;;;;;8.80;3.30;;;;;;;22.63;35.75;100233.39;107481;1257;74067;-37
2023/05/20 10:00:55;;;;;;;6.10;3.20;;;;;;;22.68;36.67;100239.80;107573;1253;61544;-37
2023/05/20 10:03:23;;;;;;;11.70;3.90;;;;;;;22.76;37.54;100237.30;107489;1254;62706;-37
2023/05/20 10:06:00;;;;;;;7.90;3.60;;;;;;;22.92;37.57;100234.98;107437;1254;75039;-37
2023/05/20 10:08:46;;;;;;;5.40;3.10;;;;;;;23.11;36.26;100236.08;107558;1253;70072;-37
2023/05/20 10:11:13;;;;;;;6.50;3.00;;;;;;;23.23;34.71;100231.50;107574;1253;75283;-37
2023/05/20 10:14:08;;;;;;;6.00;3.10;;;;;;;23.23;34.58;100225.98;107502;1254;61162;-37
2023/05/20 10:17:19;;;;;;;8.30;2.80;;;;;;;23.29;34.44;100229.02;107579;1253;60409;-37
2023/05/20 10:19:46;;;;;;;6.80;3.00;;;;;;;23.36;34.87;100229.69;107566;1254;76398;-38
2023/05/20 10:22:13;;;;;;;4.00;2.90;;;;;;;23.41;35.49;100228.09;107268;1254;70486;-38
2023/05/20 10:24:42;;;;;;;16.10;3.20;;;;;;;23.49;34.72;100221.30;107507;1254;74924;-38
2023/05/20 10:27:13;;;;;;;10.00;3.10;;;;;;;23.50;34.08;100221.35;107522;1253;60761;-38
2023/05/20 10:29:45;;;;;;;6.80;3.20;;;;;;;23.43;34.52;100223.21;107604;1253;60947;-38
2023/05/20 10:32:25;;;;;;;5.20;3.10;;;;;;;23.46;34.30;100218.98;107567;1254;76237;-38
2023/05/20 10:34:54;;;;;;;6.20;3.10;;;;;;;23.59;33.95;100222.66;107606;1254;68214;-38
2023/05/20 10:37:30;;;;;;;12.10;2.70;;;;;;;23.81;35.00;100217.62;107275;1256;74604;-38
2023/05/20 10:40:08;;;;;;;5.80;3.10;;;;;;;24.17;34.87;100212.97;107603;1254;60530;-38
2023/05/20 10:42:36;;;;;;;5.80;2.90;;;;;;;24.47;33.16;100212.42;107502;1254;62036;-38
2023/05/20 10:45:04;;;;;;;4.30;3.00;;;;;;;24.63;32.92;100210.03;107585;1254;75236;-38
2023/05/20 10:47:32;;;;;;;7.80;2.90;;;;;;;24.87;32.84;100202.71;107659;1254;69100;-38
2023/05/20 10:50:00;;;;;;;7.90;3.10;;;;;;;25.06;31.35;100195.71;107584;1254;74420;-38
2023/05/20 10:52:32;;;;;;;10.60;3.20;;;;;;;25.07;31.36;100207.50;107489;1259;63100;-38
2023/05/20 10:54:59;;;;;;;6.80;3.00;;;;;;;24.97;31.81;100199.45;107604;1254;62053;-38
2023/05/20 10:57:27;;;;;;;6.50;3.30;;;;;;;24.93;32.22;100202.95;107483;1254;74974;-38
2023/05/20 10:59:55;;;;;;;6.00;3.00;;;;;;;24.91;31.89;100206.50;107596;1254;69091;-38
2023/05/20 11:02:31;;;;;;;6.60;3.20;;;;;;;24.89;33.10;100211.39;107485;1254;74966;-38
2023/05/20 11:04:58;;;;;;;7.40;3.50;;;;;;;25.01;33.19;100208.38;107554;1254;62072;-38
2023/05/20 11:07:27;;;;;;;6.60;3.10;;;;;;;25.20;32.36;100205.24;107555;1254;62377;-38
2023/05/20 11:09:55;;;;;;;9.50;3.20;;;;;;;25.39;32.87;100205.73;107565;1253;74689;-38
2023/05/20 11:12:23;;;;;;;5.10;3.10;;;;;;;25.58;31.69;100202.85;107535;1253;68659;-38
2023/05/20 11:14:50;;;;;;;5.40;2.80;;;;;;;25.67;30.38;100197.45;107575;1254;74055;-38
2023/05/20 11:17:18;;;;;;;8.90;3.10;;;;;;;25.63;30.39;100205.67;107489;1254;61107;-38
2023/05/20 11:19:49;;;;;;;5.40;3.10;;;;;;;25.64;30.90;100191.34;107497;1254;62449;-38
2023/05/20 11:22:17;;;;;;;4.80;3.00;;;;;;;25.68;31.55;100200.75;107554;1254;75788;-38
2023/05/20 11:24:45;;;;;;;9.70;3.50;;;;;;;25.64;31.10;100200.56;107553;1253;68646;-38
2023/05/20 11:27:12;;;;;;;6.60;3.40;;;;;;;25.74;31.66;100198.66;107539;1257;74835;-38